Tiempo atmosférico en la estación meteorológica de A Coruña, A Coruña (58 m.)

Fecha
DESCASC
Temp. máxima en grados centígrados (hora)
DESCASC
Temp. mínima en grados centígrados (hora)
DESCASC
Temp. media en grados centígrados
DESCASC
Racha de viento máxima en m/sg (hora)
DESCASC
Velocidad máxima media en intervalos de 10 minutos(hora)
DESCASC
Precipitaciones diarias en mm
DESCASC
Precipitaciones de 00:00 a 06:00 en mm
DESCASC
Precipitaciones de 06:00 a 12:00 en mm
DESCASC
Precipitaciones de 12:00 a 18:00 en mm
DESCASC
Precipitaciones de 18:00 a 24:00 en mm
DESCASC
17-08-2017 25.2 (14:00) 20.2 (21:50) 22.7 10.28 (17:50) 6.39 (15:50) 0 0 0 0 0
16-08-2017 24.7 (13:20) 15.3 (07:50) 20 11.94 (18:40) 7.78 (18:30) 0 0 0 0 0
15-08-2017 21.9 (15:10) 16.7 (00:00) 19.3 6.67 (06:40) 3.89 (17:20) 0.4 0 0.4 0 0
14-08-2017 24.2 (15:30) 17.7 (08:10) 21 10.56 (12:40) 6.39 (13:40) 0 0 0 0 0
13-08-2017 24.6 (13:30) 15.5 (00:00) 20.1 8.61 (17:30) 5.28 (17:30) 0 0 0 0 0
12-08-2017 21.1 (15:40) 14.3 (00:00) 17.7 14.17 (17:20) 9.17 (17:20) 0 0 0 0 0
11-08-2017 21.4 (12:10) 14.5 (00:00) 17.9 13.06 (16:10) 8.89 (16:10) 0 0 0 0 0
10-08-2017 20.5 (12:30) 15.3 (00:00) 17.9 14.17 (16:40) 7.78 (15:50) 0 0 0 0 0
09-08-2017 20.3 (14:40) 14.9 (00:00) 17.6 10.83 (02:20) 6.94 (18:50) 5.2 5.2 0 0 0
08-08-2017 22.2 (14:10) 15.9 (00:00) 19.1 8.89 (15:20) 6.11 (15:10) 0.6 0.4 0.2 0 0
07-08-2017 19.8 (16:40) 16.2 (00:00) 18 13.06 (08:50) 7.78 (08:20) 0 0 0 0 0
06-08-2017 23.3 (16:00) 16.9 (00:00) 20.1 12.5 (15:30) 7.78 (13:00) 0 0 0 0 0
05-08-2017 20 (10:40) 16.4 (00:00) 18.2 13.61 (18:30) 7.5 (14:00) 0.6 0.6 0 0 0
04-08-2017 25.4 (12:00) 16.9 (00:00) 21.1 10 (11:10) 5.83 (20:30) 4 0 0 2.6 1.4
03-08-2017 24.5 (17:50) 18.4 (00:00) 21.4 8.33 (03:50) 4.72 (15:20) 0.6 0.6 0 0 0
02-08-2017 28.1 (16:50) 16.4 (00:00) 22.3 11.94 (20:30) 6.94 (21:00) 0 0 0 0 0
01-08-2017 22 (16:10) 15.1 (00:00) 18.6 6.67 (17:00) 4.17 (15:00) 0 0 0 0 0
31-07-2017 21.9 (13:20) 16.8 (00:00) 19.3 7.22 (16:50) 5 (15:50) 0 0 0 0 0
30-07-2017 22.6 (11:40) 17.4 (00:00) 20 11.39 (16:20) 6.94 (14:20) 0.2 0.2 0 0 0
29-07-2017 27.7 (16:00) 19.9 (00:00) 23.8 18.33 (17:30) 10 (17:10) 0 0 0 0 0
28-07-2017 24.8 (18:50) 16.9 (00:00) 20.8 6.94 (21:20) 4.44 (21:20) 0 0 0 0 0
27-07-2017 21.9 (11:00) 18.3 (00:00) 20.1 6.67 (10:20) 3.89 (13:50) 5.2 0 0.2 5 0
26-07-2017 23.3 (15:50) 17.2 (00:00) 20.3 8.06 (14:30) 5.83 (15:20) 0 0 0 0 0
25-07-2017 21.7 (15:20) 16.8 (00:00) 19.3 8.33 (17:20) 5 (14:30) 0 0 0 0 0
24-07-2017 21.3 (15:40) 16.5 (00:00) 18.9 6.67 (00:10) 4.72 (00:20) 1.2 0.6 0.6 0 0
23-07-2017 23.5 (16:10) 16.1 (00:00) 19.8 9.72 (16:10) 6.39 (16:20) 0.6 0 0 0 0.6
22-07-2017 22 (17:30) 16.3 (00:00) 19.1 9.72 (16:20) 7.22 (16:20) 1.4 0.4 1 0 0

Gráficas

Temp. máximas Temp. mínimas Temp. medias Precipitaciones Rachas de viento máximas Velocidades máximas media en intervalos de 10 minutos

Datos horarios

Fecha y hora oficial Temperatura (ºC) Velocidad del viento (km/h) Dirección del viento Racha (km/h) Dirección de racha Precipitación (mm) Presión (hPa) Tendencia (hPa) Humedad (%)
2017-08-20 23:00:00 22.1 3 Nordeste 15 Nordeste 0 1010.1 -0.1 63
2017-08-20 22:00:00 22.9 9 Nordeste 16 Nordeste 0 1009.9 -1.1 61
2017-08-20 21:00:00 24 4 Norte 8 Este 0 1009.9 -1.7 60
2017-08-20 20:00:00 24.3 6 Norte 13 Nordeste 0 1010.2 -2 59
2017-08-20 19:00:00 22.9 8 Noroeste 21 Norte 0 1011 -1.9 64
2017-08-20 18:00:00 22.6 16 Norte 27 Norte 0 1011.6 -1.9 64
2017-08-20 17:00:00 23.7 12 Norte 24 Norte 0 1012.2 -1.9 60
2017-08-20 16:00:00 23.6 12 Norte 25 Norte 0 1012.9 -1.3 61
2017-08-20 15:00:00 23.4 14 Norte 25 Norte 0 1013.5 -0.9 63
2017-08-20 14:00:00 22.3 13 Norte 27 Norte 0 1014.1 -0.6 67
2017-08-20 13:00:00 23.5 12 Norte 18 Norte 0 1014.2 -0.6 63
2017-08-20 12:00:00 23.3 4 Norte 12 Nordeste 0 1014.4 -0.3 64
2017-08-20 11:00:00 21.7 6 Este 10 Sudeste 0 1014.7 0 70
2017-08-20 10:00:00 19.2 4 Nordeste 12 Este 0 1014.8 0.3 79
2017-08-20 09:00:00 17.3 3 Este 6 Nordeste 0 1014.7 0 87
2017-08-20 08:00:00 16.6 5 Sudeste 14 Este 0 1014.7 -0.2 90
2017-08-20 07:00:00 16.7 6 Este 11 Nordeste 0 1014.5 -0.6 90
2017-08-20 06:00:00 16.8 6 Nordeste 14 Nordeste 0 1014.7 -0.9 89
2017-08-20 05:00:00 17 6 Este 9 Nordeste 0 1014.9 -1.1 88
2017-08-20 04:00:00 17.4 5 Este 12 Este 0 1015.1 -1.3 87
2017-08-20 03:00:00 17.7 11 Nordeste 21 Nordeste 0 1015.6 -1.2 85
2017-08-20 02:00:00 17.8 12 Nordeste 22 Nordeste 0 1016 -0.8 85
2017-08-20 01:00:00 18 13 Nordeste 22 Nordeste 0 1016.4 0 85
2017-08-20 00:00:00 17.9 11 Nordeste 27 Nordeste 0 1016.8 0.7 85
2017-08-19 23:00:00 18.2 15 Nordeste 23 Nordeste 0 1016.8 1.1 83
2017-08-19 22:00:00 17.9 17 Nordeste 31 Nordeste 0 1016.4 0.8 86
2017-08-19 21:00:00 18.2 19 Nordeste 37 Norte 0 1016.1 0.4 85
2017-08-19 20:00:00 18.6 16 Nordeste 32 Norte 0 1015.7 0 82
2017-08-19 19:00:00 19.2 14 Nordeste 37 Norte 0 1015.6 -0.1 79
2017-08-19 18:00:00 19.3 22 Norte 41 Norte 0 1015.7 -0.1 77
2017-08-19 17:00:00 19.9 27 Norte 42 Norte 0 1015.7 -0.2 75
2017-08-19 16:00:00 20.1 21 Norte 39 Norte 0 1015.7 -0.2 73
2017-08-19 15:00:00 20.5 19 Norte 32 Norte 0 1015.8 -0.8 72
2017-08-19 14:00:00 22.2 19 Nordeste 33 Nordeste 0 1015.9 -0.4 64
2017-08-19 13:00:00 21.4 21 Nordeste 32 Este 0 1015.9 -0.4 67
2017-08-19 12:00:00 19.7 16 Norte 29 Nordeste 0 1016.6 0.5 76
2017-08-19 11:00:00 20 17 Nordeste 26 Nordeste 0 1016.3 0.5 74
2017-08-19 10:00:00 19.3 14 Nordeste 24 Nordeste 0 1016.3 1 77
2017-08-19 09:00:00 17.8 15 Nordeste 26 Nordeste 0 1016.1 1.3 81
2017-08-19 08:00:00 17.2 15 Nordeste 24 Nordeste 0 1015.8 0.4 83
2017-08-19 07:00:00 17 10 Norte 19 Nordeste 0 1015.3 0 87
2017-08-19 06:00:00 17.1 12 Nordeste 23 Nordeste 0 1014.8 -0.6 86
2017-08-19 05:00:00 17 10 Nordeste 24 Nordeste 0 1015.4 0 89
2017-08-19 04:00:00 16.9 11 Norte 18 Norte 0 1015.3 -0.4 92
2017-08-19 03:00:00 17.2 10 Norte 20 Norte 0 1015.4 -0.6 91
2017-08-19 02:00:00 17.3 10 Nordeste 17 Nordeste 0 1015.4 -0.6 92
2017-08-19 01:00:00 17.4 10 Norte 24 Nordeste 0 1015.7 0.4 92
2017-08-19 00:00:00 17.7 10 Norte 21 Norte 0 1016 1.1 92
2017-08-18 23:00:00 18 14 Norte 27 Norte 0 1016 1.4 90
2017-08-18 22:00:00 18.2 11 Norte 33 Norte 0 1015.3 0.8 90
2017-08-18 21:00:00 18.8 22 Norte 33 Norte 0 1014.9 0.6 88
2017-08-18 20:00:00 19.2 19 Norte 32 Norte 0 1014.6 0.4 86
2017-08-18 19:00:00 20 20 Norte 30 Norte 0 1014.5 0.4 84
2017-08-18 18:00:00 20.9 22 Norte 36 Norte 0 1014.3 -0.4 84
2017-08-18 17:00:00 21.6 14 Norte 29 Noroeste 0 1014.2 -0.2 79
2017-08-18 16:00:00 22.2 15 Norte 28 Nordeste 0 1014.1 -0.3 78
2017-08-18 15:00:00 22.4 15 Norte 26 Norte 0 1014.7 0.7 79
2017-08-18 14:00:00 24.1 7 Norte 15 Norte 0 1014.4 0.7 71
2017-08-18 13:00:00 22.5 9 Noroeste 18 Oeste 0 1014.4 1.2 83
2017-08-18 12:00:00 22.9 8 Nordeste 11 Nordeste 0 1014 1.4 80
2017-08-18 11:00:00 21 4 Noroeste 14 Oeste 0 1013.7 1.1 92
2017-08-18 10:00:00 20.1 7 Oeste 12 Oeste 0 1013.2 0.8 97
2017-08-18 09:00:00 19.8 8 Sudoeste 15 Sudoeste 0.2 1012.6 1.1 97
2017-08-18 08:00:00 19.8 5 Oeste 9 Oeste 0.4 1012.6 0.4 95
2017-08-18 07:00:00 19.5 0 Calma 15 Sur 0 1012.4 0 95
2017-08-18 06:00:00 19.6 11 Sudeste 17 Sur 0.2 1011.5 -1.2 94
2017-08-18 05:00:00 20 4 Sudeste 11 Sur 0.6 1012.2 -0.7 95
2017-08-18 04:00:00 20 5 Sur 23 Sudoeste 3.2 1012.4 -0.6 96
2017-08-18 03:00:00 20 8 Oeste 14 Sudoeste 0 1012.7 -0.7 94
2017-08-18 02:00:00 20.2 3 Oeste 16 Noroeste 0 1012.9 -0.5 88
2017-08-18 01:00:00 21.2 8 Sudoeste 13 Sudoeste 0 1013 -0.1 80
2017-08-18 00:00:00 20.7 4 Sudoeste 13 Sudeste 0 1013.4 0.7 79
2017-08-17 23:00:00 20.3 9 Sudoeste 29 Oeste 0 1013.4 0.9 83
2017-08-17 22:00:00 20.2 12 Oeste 30 Oeste 0 1013.1 0.7 81
2017-08-17 21:00:00 20.8 14 Oeste 30 Oeste 0 1012.7 0.5 78
2017-08-17 20:00:00 21.2 20 Oeste 32 Oeste 0 1012.5 -0.2 78
2017-08-17 19:00:00 23.1 20 Oeste 35 Oeste 0 1012.4 -0.5 69
2017-08-17 18:00:00 24.2 22 Oeste 37 Oeste 0 1012.2 -0.9 64
2017-08-17 17:00:00 24.2 19 Oeste 34 Oeste 0 1012.7 -0.5 66
2017-08-17 16:00:00 23.8 23 Oeste 33 Oeste 0 1012.9 -0.9 70
2017-08-17 15:00:00 23.9 21 Oeste 32 Oeste 0 1013.1 -1.1 69
2017-08-17 14:00:00 25.2 21 Oeste 31 Noroeste 0 1013.2 -0.8 60
2017-08-17 13:00:00 24.8 19 Oeste 28 Oeste 0 1013.8 0 64
2017-08-17 12:00:00 23.6 12 Oeste 18 Oeste 0 1014.2 0.4 67
2017-08-17 11:00:00 22.8 10 Oeste 22 Oeste 0 1014 0.5 68
2017-08-17 10:00:00 21.8 11 Sur 23 Sur 0 1013.8 0 73
2017-08-17 09:00:00 20.8 8 Sur 21 Sur 0 1013.8 0.1 78
2017-08-17 08:00:00 20.4 11 Sur 20 Sur 0 1013.5 -0.1 80
2017-08-17 07:00:00 20.5 11 Sur 19 Sudoeste 0 1013.8 0.1 81
2017-08-17 06:00:00 20.5 10 Oeste 19 Oeste 0 1013.7 -0.3 80
2017-08-17 05:00:00 21 12 Oeste 19 Oeste 0 1013.6 -0.6 80
2017-08-17 04:00:00 21.3 8 Oeste 22 Sudoeste 0 1013.7 -0.8 78
2017-08-17 03:00:00 21.5 11 Sudoeste 21 Sudoeste 0 1014 -0.8 77
2017-08-17 02:00:00 21.6 9 Sudoeste 15 Sudoeste 0 1014.2 -0.8 77
2017-08-17 01:00:00 21.4 9 Sudoeste 17 Sudoeste 0 1014.5 -0.4 80
2017-08-17 00:00:00 21.5 5 Oeste 14 Oeste 0 1014.8 0.1 83
2017-08-16 23:00:00 21.6 9 Oeste 19 Oeste 0 1015 0.3 81
2017-08-16 22:00:00 21.8 8 Oeste 26 Oeste 0 1014.9 0.1 77
2017-08-16 21:00:00 21.7 17 Oeste 38 Oeste 0 1014.7 0.2 78
2017-08-16 20:00:00 22.4 26 Oeste 42 Oeste 0 1014.7 0.2 77
2017-08-16 19:00:00 22.6 24 Oeste 43 Noroeste 0 1014.8 -0.1 76
2017-08-16 18:00:00 23.3 20 Oeste 38 Oeste 0 1014.5 -0.5 75
2017-08-16 17:00:00 24.4 15 Oeste 40 Oeste 0 1014.5 -0.8 69
2017-08-16 16:00:00 23.9 21 Oeste 35 Oeste 0 1014.9 -0.2 69
2017-08-16 15:00:00 23.2 20 Oeste 33 Noroeste 0 1015 0.1 71
2017-08-16 14:00:00 23.2 10 Noroeste 23 Oeste 0 1015.3 0.3 67
2017-08-16 13:00:00 24.2 9 Nordeste 14 Nordeste 0 1015.1 -0.2 64
2017-08-16 12:00:00 23.2 9 Nordeste 12 Nordeste 0 1014.9 -0.2 65
2017-08-16 11:00:00 22.2 7 Norte 17 Sudoeste 0 1015 0.3 65
2017-08-16 10:00:00 19.9 4 Sudeste 17 Sur 0 1015.3 1 69
2017-08-16 09:00:00 16.4 3 Este 4 Este 0 1015.1 1 88
2017-08-16 08:00:00 15.4 3 Sudoeste 6 Sur 0 1014.7 0.6 89
2017-08-16 07:00:00 15.4 3 Sudeste 8 Sur 0 1014.3 0.2 90
2017-08-16 06:00:00 15.5 2 Sudeste 4 Sudeste 0 1014.1 -0.4 91
2017-08-16 05:00:00 15.8 2 Sudeste 7 Sur 0 1014.1 -0.8 90
2017-08-16 04:00:00 16.2 4 Sudeste 8 Sur 0 1014.1 -0.9 90
2017-08-16 03:00:00 16.6 0 Calma 4 Este 0 1014.5 -0.5 88
2017-08-16 02:00:00 17.2 3 Sudoeste 6 Sudoeste 0 1014.9 -0.3 86
2017-08-16 01:00:00 17.3 5 Sudoeste 6 Sudoeste 0 1015 0.3 86
2017-08-16 00:00:00 17.3 2 Sudoeste 4 Oeste 0 1015 0.6 88
2017-08-15 23:00:00 17.7 3 Oeste 12 Noroeste 0 1015.2 0.9 87
2017-08-15 22:00:00 18.1 7 Noroeste 12 Norte 0 1014.7 0.8 85
2017-08-15 21:00:00 18.6 7 Norte 19 Noroeste 0 1014.4 0.6 82
2017-08-15 20:00:00 19.1 12 Noroeste 22 Norte 0 1014.3 0.5 81
2017-08-15 19:00:00 19.5 14 Norte 22 Norte 0 1013.9 0.2 80
2017-08-15 18:00:00 20.2 13 Norte 23 Noroeste 0 1013.8 0.1 78
2017-08-15 17:00:00 21.6 14 Noroeste 21 Norte 0 1013.8 -0.1 73
2017-08-15 16:00:00 21.4 10 Norte 18 Norte 0 1013.7 0 74
2017-08-15 15:00:00 21.4 12 Norte 19 Norte 0 1013.7 0.5 75
2017-08-15 14:00:00 20.2 8 Noroeste 15 Oeste 0 1013.9 0.8 78
2017-08-15 13:00:00 19.5 10 Oeste 14 Oeste 0 1013.7 1.1 87
2017-08-15 12:00:00 18.9 9 Sudoeste 17 Oeste 0 1013.2 0.9 89
2017-08-15 11:00:00 18 4 Noroeste 8 Norte 0.2 1013.1 1.5 96
2017-08-15 10:00:00 17.3 5 Oeste 10 Oeste 0 1012.6 1.5 97
2017-08-15 09:00:00 16.8 4 Noroeste 13 Noroeste 0 1012.3 1.6 97
2017-08-15 08:00:00 16.7 9 Noroeste 18 Noroeste 0.2 1011.6 0.8 97
2017-08-15 07:00:00 17.8 9 Oeste 24 Oeste 0 1011.1 0.5 94
2017-08-15 06:00:00 17.9 5 Sudoeste 8 Sudoeste 0 1010.7 -0.1 94
2017-08-15 05:00:00 17.8 5 Sudoeste 13 Oeste 0 1010.8 -0.2 94
2017-08-15 04:00:00 18 5 Oeste 9 Oeste 0 1010.6 -0.1 93
2017-08-15 03:00:00 18.2 4 Oeste 10 Sudoeste 0 1010.8 0.1 93
2017-08-15 02:00:00 18.5 5 Oeste 10 Oeste 0 1011 0.5 92
2017-08-15 01:00:00 18.6 5 Oeste 14 Noroeste 0 1010.7 0.9 92
2017-08-15 00:00:00 19 7 Noroeste 15 Oeste 0 1010.7 1.2 93
2017-08-14 23:00:00 19.2 11 Oeste 14 Noroeste 0 1010.5 1.4 93
2017-08-14 22:00:00 19.4 7 Oeste 14 Oeste 0 1009.8 0.7 92
2017-08-14 21:00:00 20.1 9 Noroeste 16 Noroeste 0 1009.5 0.7 89
2017-08-14 20:00:00 20.6 12 Oeste 18 Oeste 0 1009.1 0.7 88
2017-08-14 19:00:00 21.3 14 Oeste 22 Noroeste 0 1009.1 0.8 84
2017-08-14 18:00:00 21.7 14 Oeste 25 Oeste 0 1008.8 0.9 84
2017-08-14 17:00:00 22.4 16 Oeste 28 Oeste 0 1008.4 0.9 80
2017-08-14 16:00:00 23.1 21 Oeste 30 Noroeste 0 1008.3 1 78
2017-08-14 15:00:00 23.7 16 Oeste 28 Oeste 0 1007.9 1.3 74
2017-08-14 14:00:00 22 10 Oeste 36 Sudoeste 0 1007.5 1.5 79
2017-08-14 13:00:00 22.2 21 Oeste 38 Oeste 0 1007.3 1.6 76
2017-08-14 12:00:00 21.6 19 Oeste 33 Oeste 0 1006.6 1.3 77
2017-08-14 11:00:00 21.3 12 Oeste 21 Oeste 0 1006 0.8 72
2017-08-14 10:00:00 20.9 3 Nordeste 6 Sudeste 0 1005.7 0.9 75
2017-08-14 09:00:00 18.3 3 Sudeste 8 Oeste 0 1005.3 0.8 86
2017-08-14 08:00:00 17.8 5 Oeste 10 Oeste 0 1005.2 0.5 86
2017-08-14 07:00:00 18.2 4 Nordeste 9 Sudeste 0 1004.8 -0.2 84
2017-08-14 06:00:00 18.7 3 Sudeste 12 Sudeste 0 1004.5 -0.9 80
2017-08-14 05:00:00 18.4 6 Sudeste 12 Sudeste 0 1004.7 -1.3 83
2017-08-14 04:00:00 18.5 3 Este 9 Este 0 1005 -1.3 81
2017-08-14 03:00:00 18.9 4 Sudeste 7 Este 0 1005.4 -1.2 80
2017-08-14 02:00:00 19.5 2 Norte 6 Noroeste 0 1006 -0.6 78
2017-08-14 01:00:00 19.9 0 Calma 5 Norte 0 1006.3 -0.1 78
2017-08-14 00:00:00 20.2 3 Norte 10 Oeste 0 1006.6 0.1 76
2017-08-13 23:00:00 21.4 4 Este 22 Este 0 1006.6 -0.1 72
2017-08-13 22:00:00 21.8 2 Este 6 Este 0 1006.4 -0.6 71
2017-08-13 21:00:00 23.1 0 Calma 6 Oeste 0 1006.5 -0.8 68
2017-08-13 20:00:00 23.4 3 Noroeste 12 Norte 0 1006.7 -1.3 66
2017-08-13 19:00:00 22.5 8 Noroeste 25 Norte 0 1007 -1.5 68
2017-08-13 18:00:00 21 14 Norte 31 Norte 0 1007.3 -1.8 73
2017-08-13 17:00:00 22.7 12 Norte 24 Norte 0 1008 -1.9 66
2017-08-13 16:00:00 23.8 10 Norte 18 Norte 0 1008.5 -1.8 62
2017-08-13 15:00:00 23.4 9 Norte 21 Norte 0 1009.1 -2 61
2017-08-13 14:00:00 24.4 12 Norte 17 Noroeste 0 1009.9 -1.3 59
2017-08-13 13:00:00 23.6 5 Norte 10 Norte 0 1010.3 -1.2 59
2017-08-13 12:00:00 22.8 5 Nordeste 12 Nordeste 0 1011.1 -0.4 62
2017-08-13 11:00:00 20.8 6 Este 14 Este 0 1011.2 -0.4 68
2017-08-13 10:00:00 18.6 7 Este 13 Este 0 1011.5 -0.1 77
2017-08-13 09:00:00 16.4 5 Este 9 Este 0 1011.5 -0.4 88
2017-08-13 08:00:00 15.6 4 Este 7 Este 0 1011.6 -0.7 90
2017-08-13 07:00:00 15.8 4 Este 11 Este 0 1011.6 -1 89
2017-08-13 06:00:00 16.3 5 Este 11 Este 0 1011.9 -1.4 88
2017-08-13 05:00:00 16.8 6 Nordeste 17 Nordeste 0 1012.3 -1.5 87
2017-08-13 04:00:00 17 10 Nordeste 18 Nordeste 0 1012.6 -1.5 86
2017-08-13 03:00:00 17.1 9 Nordeste 22 Nordeste 0 1013.3 -0.9 85
2017-08-13 02:00:00 17.1 12 Nordeste 23 Nordeste 0 1013.8 -0.6 85
2017-08-13 01:00:00 17 8 Nordeste 18 Norte 0 1014.1 0.1 86
2017-08-13 00:00:00 16.8 4 Norte 15 Norte 0 1014.2 0.1 87
2017-08-12 23:00:00 16.8 8 Noroeste 17 Norte 0 1014.4 0.3 89
2017-08-12 22:00:00 17 10 Norte 27 Norte 0 1014 -0.3 87
2017-08-12 21:00:00 17.5 12 Norte 32 Norte 0 1014.1 -0.4 85
2017-08-12 20:00:00 18 22 Norte 40 Norte 0 1014.1 -0.5 83
2017-08-12 19:00:00 18.4 24 Norte 45 Norte 0 1014.3 -0.7 82
2017-08-12 18:00:00 19 31 Norte 51 Norte 0 1014.5 -0.7 81
2017-08-12 17:00:00 19.7 29 Norte 46 Norte 0 1014.6 -1.1 78
2017-08-12 16:00:00 20.8 28 Norte 43 Norte 0 1015 -1 74
2017-08-12 15:00:00 20.9 25 Norte 40 Norte 0 1015.2 -1 75
2017-08-12 14:00:00 20.1 24 Norte 36 Norte 0 1015.7 -0.2 77
2017-08-12 13:00:00 20.5 18 Norte 31 Norte 0 1016 0 76
2017-08-12 12:00:00 20.1 9 Norte 16 Norte 0 1016.2 0.4 72
2017-08-12 11:00:00 19.5 10 Nordeste 18 Nordeste 0 1015.9 0.5 72
2017-08-12 10:00:00 18 8 Este 15 Nordeste 0 1016 0.9 79
2017-08-12 09:00:00 15.3 6 Este 11 Este 0 1015.8 0.7 89
2017-08-12 08:00:00 14.3 3 Este 9 Este 0 1015.4 -0.2 91
2017-08-12 07:00:00 14.8 5 Este 13 Este 0 1015.1 -0.7 89
2017-08-12 06:00:00 15.1 5 Este 9 Nordeste 0 1015.1 -1.2 87
2017-08-12 05:00:00 15.6 7 Nordeste 20 Este 0 1015.6 -0.8 87
2017-08-12 04:00:00 16.1 10 Este 18 Nordeste 0 1015.8 -0.6 86
2017-08-12 03:00:00 16.4 11 Nordeste 21 Nordeste 0 1016.3 -0.4 83
2017-08-12 02:00:00 16.6 12 Nordeste 22 Nordeste 0 1016.4 -0.2 82
2017-08-12 01:00:00 16.8 12 Nordeste 22 Nordeste 0 1016.4 0.3 81
2017-08-12 00:00:00 17.1 16 Nordeste 24 Norte 0 1016.7 0.6 80
2017-08-11 23:00:00 17 10 Norte 21 Norte 0 1016.6 0.6 83
2017-08-11 22:00:00 17.2 16 Norte 33 Norte 0 1016.1 -0.1 83
2017-08-11 21:00:00 17.6 22 Norte 37 Norte 0 1016.1 -0.5 81
2017-08-11 20:00:00 18.1 23 Norte 38 Norte 0 1016 -0.5 79
2017-08-11 19:00:00 18.2 30 Norte 43 Norte 0 1016.2 -0.6 78
2017-08-11 18:00:00 19.4 19 Norte 41 Norte 0 1016.6 -0.5 75
2017-08-11 17:00:00 19.7 27 Norte 47 Norte 0 1016.5 -0.9 73
2017-08-11 16:00:00 20 31 Norte 45 Norte 0 1016.8 -0.9 73
2017-08-11 15:00:00 20.6 24 Norte 40 Norte 0 1017.1 -0.7 72
2017-08-11 14:00:00 20.3 22 Norte 34 Norte 0 1017.4 -0.4 71
2017-08-11 13:00:00 20.2 18 Norte 28 Norte 0 1017.7 -0.1 70
2017-08-11 12:00:00 21.2 8 Nordeste 16 Nordeste 0 1017.8 0.1 64
2017-08-11 11:00:00 19.4 9 Nordeste 19 Este 0 1017.8 0.2 71
2017-08-11 10:00:00 17.4 8 Este 13 Sudeste 0 1017.8 0.3 79
2017-08-11 09:00:00 15.4 6 Este 12 Este 0 1017.7 0.2 86
2017-08-11 08:00:00 14.5 8 Este 12 Nordeste 0 1017.6 -0.3 90
2017-08-11 07:00:00 14.7 9 Nordeste 14 Este 0 1017.5 -0.9 90
2017-08-11 06:00:00 15.3 9 Nordeste 15 Este 0 1017.5 -1.4 87
2017-08-11 05:00:00 15.3 8 Nordeste 13 Nordeste 0 1017.9 -1.6 87
2017-08-11 04:00:00 15.6 6 Nordeste 13 Nordeste 0 1018.4 -1.4 84
2017-08-11 03:00:00 15.9 8 Nordeste 16 Nordeste 0 1018.9 -1.1 83
2017-08-11 02:00:00 16.2 11 Nordeste 21 Nordeste 0 1019.5 -0.3 80
2017-08-11 01:00:00 16.2 13 Nordeste 18 Norte 0 1019.8 0.2 82
2017-08-11 00:00:00 16.5 11 Nordeste 22 Nordeste 0 1020 0.6 80
2017-08-10 23:00:00 17 17 Nordeste 26 Nordeste 0 1019.8 0.4 77
2017-08-10 22:00:00 17.2 17 Nordeste 32 Nordeste 0 1019.6 -0.1 78
2017-08-10 21:00:00 17.4 26 Nordeste 40 Nordeste 0 1019.4 -0.5 78
2017-08-10 20:00:00 17.8 20 Nordeste 38 Norte 0 1019.4 -0.9 77
2017-08-10 19:00:00 18.1 21 Norte 42 Norte 0 1019.7 -1 74
2017-08-10 18:00:00 18.7 21 Norte 48 Norte 0 1019.9 -1.1 74
2017-08-10 17:00:00 19 26 Norte 51 Norte 0 1020.3 -1.1 71
2017-08-10 16:00:00 19.2 22 Norte 44 Norte 0 1020.7 -0.6 70
2017-08-10 15:00:00 19.3 26 Norte 46 Norte 0 1021 -0.4 68
2017-08-10 14:00:00 19.5 21 Norte 36 Norte 0 1021.4 0.2 67
2017-08-10 13:00:00 20.3 18 Nordeste 30 Norte 0 1021.3 0.1 63
2017-08-10 12:00:00 19.5 13 Nordeste 21 Este 0 1021.4 0.3 67
2017-08-10 11:00:00 19.4 14 Nordeste 21 Nordeste 0 1021.2 0.3 64
2017-08-10 10:00:00 17.7 13 Nordeste 20 Este 0 1021.2 0.5 71
2017-08-10 09:00:00 15.7 10 Este 18 Este 0 1021.1 0.7 81
2017-08-10 08:00:00 15.3 10 Nordeste 24 Nordeste 0 1020.9 0.4 84
2017-08-10 07:00:00 15.5 11 Nordeste 18 Nordeste 0 1020.7 0.2 83
2017-08-10 06:00:00 15.6 11 Nordeste 22 Nordeste 0 1020.4 -0.3 80
2017-08-10 05:00:00 15.6 12 Nordeste 20 Nordeste 0 1020.5 -0.4 80
2017-08-10 04:00:00 16 9 Nordeste 20 Nordeste 0 1020.5 -0.2 80
2017-08-10 03:00:00 16.2 11 Nordeste 20 Nordeste 0 1020.7 0.4 80
2017-08-10 02:00:00 16.3 13 Nordeste 25 Nordeste 0 1020.9 0.7 77
2017-08-10 01:00:00 16.4 15 Nordeste 28 Nordeste 0 1020.7 1.1 78
2017-08-10 00:00:00 16.6 18 Nordeste 28 Nordeste 0 1020.3 1 76
2017-08-09 23:00:00 16.7 14 Nordeste 28 Nordeste 0 1020.2 1.2 75
2017-08-09 22:00:00 16.9 16 Nordeste 32 Nordeste 0 1019.6 0.8 78
2017-08-09 21:00:00 17.3 19 Nordeste 33 Nordeste 0 1019.3 0.5 76
2017-08-09 20:00:00 17.7 17 Norte 31 Nordeste 0 1019 0.1 73
2017-08-09 19:00:00 18.6 22 Nordeste 37 Norte 0 1018.8 0 68
2017-08-09 18:00:00 18.8 15 Norte 29 Norte 0 1018.8 0.2 68
2017-08-09 17:00:00 18.9 21 Norte 32 Norte 0 1018.9 0.4 68
2017-08-09 16:00:00 19.1 17 Norte 30 Norte 0 1018.8 0.5 68
2017-08-09 15:00:00 20 18 Norte 25 Norte 0 1018.6 0.7 64
2017-08-09 14:00:00 19.8 17 Norte 32 Norte 0 1018.5 1.2 63
2017-08-09 13:00:00 19.1 18 Norte 29 Norte 0 1018.3 1.7 66
2017-08-09 12:00:00 18.7 18 Norte 28 Norte 0 1017.9 2.1 66
2017-08-09 11:00:00 17.2 15 Norte 26 Norte 0 1017.3 1.8 67
2017-08-09 10:00:00 17.5 13 Norte 32 Norte 0 1016.6 1.4 69
2017-08-09 09:00:00 16.6 18 Norte 32 Norte 0 1015.8 1 71
2017-08-09 08:00:00 16 21 Norte 35 Norte 0 1015.5 0.8 75
2017-08-09 07:00:00 16.2 22 Norte 33 Norte 0 1015.2 0.4 79
2017-08-09 06:00:00 16.3 19 Norte 25 Norte 0 1014.8 -0.2 77
2017-08-09 05:00:00 15.6 7 Nordeste 21 Norte 0 1014.7 -0.4 86
2017-08-09 04:00:00 14.9 18 Norte 32 Noroeste 0 1014.8 -0.3 89
2017-08-09 03:00:00 15.5 9 Noroeste 39 Oeste 5.2 1015 -0.4 84
2017-08-09 02:00:00 16.9 6 Noroeste 17 Oeste 0 1015.1 -0.2 80
2017-08-09 01:00:00 16.7 9 Noroeste 18 Noroeste 0 1015.1 0.2 75
2017-08-09 00:00:00 17 10 Noroeste 21 Noroeste 0 1015.4 0.7 72
2017-08-08 23:00:00 17.2 9 Oeste 16 Oeste 0 1015.3 0.7 75
2017-08-08 22:00:00 17.3 9 Oeste 18 Oeste 0 1014.9 0.3 75
2017-08-08 21:00:00 17.8 11 Oeste 22 Oeste 0 1014.7 0 74
2017-08-08 20:00:00 18.6 13 Oeste 21 Oeste 0 1014.6 -0.1 70
2017-08-08 19:00:00 19.1 12 Noroeste 29 Noroeste 0 1014.6 -0.2 67
2017-08-08 18:00:00 20.1 14 Noroeste 28 Noroeste 0 1014.7 -0.3 56
2017-08-08 17:00:00 21.1 17 Oeste 27 Noroeste 0 1014.7 -0.4 51
2017-08-08 16:00:00 20.9 20 Oeste 32 Oeste 0 1014.8 -0.4 60
2017-08-08 15:00:00 21.1 19 Oeste 29 Oeste 0 1015 0.1 65
2017-08-08 14:00:00 22 12 Oeste 21 Noroeste 0 1015.1 0.5 57
2017-08-08 13:00:00 20.8 12 Norte 17 Norte 0 1015.2 0.6 58
2017-08-08 12:00:00 19.8 10 Norte 15 Norte 0 1014.9 0.6 65
2017-08-08 11:00:00 19.5 9 Norte 17 Norte 0 1014.6 0.8 69
2017-08-08 10:00:00 18.4 7 Norte 16 Noroeste 0 1014.6 1.2 78
2017-08-08 09:00:00 16.4 5 Norte 19 Noroeste 0.2 1014.3 1.1 88
2017-08-08 08:00:00 16.1 7 Noroeste 13 Noroeste 0 1013.8 0.7 85
2017-08-08 07:00:00 16.1 5 Noroeste 21 Noroeste 0 1013.4 0.4 86
2017-08-08 06:00:00 16.5 13 Noroeste 22 Noroeste 0 1013.2 0.1 86
2017-08-08 05:00:00 16.2 7 Noroeste 19 Noroeste 0 1013.1 -0.4 88
2017-08-08 04:00:00 16.4 8 Noroeste 15 Noroeste 0 1013 -0.5 89
2017-08-08 03:00:00 16.4 7 Noroeste 14 Noroeste 0.4 1013.1 -0.3 90
2017-08-08 02:00:00 16.3 3 Noroeste 6 Noroeste 0 1013.5 0.1 83
2017-08-08 01:00:00 16.6 4 Noroeste 8 Norte 0 1013.5 0.7 84
2017-08-08 00:00:00 16.9 6 Norte 11 Norte 0 1013.4 0.9 84
2017-08-07 23:00:00 16.8 4 Norte 14 Noroeste 0 1013.4 1.3 82
2017-08-07 22:00:00 17.3 8 Norte 14 Noroeste 0 1012.8 0.7 76
2017-08-07 21:00:00 17.4 9 Noroeste 16 Norte 0 1012.5 0.4 77
2017-08-07 20:00:00 18.1 13 Norte 21 Norte 0 1012.1 0.2 74
2017-08-07 19:00:00 18.4 14 Norte 26 Norte 0 1012.1 0.3 73
2017-08-07 18:00:00 19.2 17 Norte 24 Noroeste 0 1012.1 0.6 69
2017-08-07 17:00:00 19.1 13 Norte 20 Norte 0 1011.9 0.3 70
2017-08-07 16:00:00 18.7 15 Norte 27 Norte 0 1011.8 0.6 76
2017-08-07 15:00:00 18.1 13 Norte 24 Norte 0 1011.5 0.7 79
2017-08-07 14:00:00 17.4 13 Norte 37 Nordeste 0 1011.6 1.4 83
2017-08-07 13:00:00 16.7 19 Nordeste 36 Nordeste 0 1011.2 1.2 89
2017-08-07 12:00:00 16.4 23 Nordeste 44 Nordeste 0 1010.8 1.2 90
2017-08-07 11:00:00 16.3 25 Nordeste 41 Nordeste 0 1010.2 0.9 93
2017-08-07 10:00:00 16.2 21 Norte 44 Norte 0 1010 1 96
2017-08-07 09:00:00 16.8 26 Nordeste 47 Norte 0 1009.6 0.7 92
2017-08-07 08:00:00 17.1 24 Nordeste 37 Norte 0 1009.3 -0.4 91
2017-08-07 07:00:00 17.2 12 Norte 30 Nordeste 0 1009 -1.3 90
2017-08-07 06:00:00 16.9 18 Nordeste 28 Nordeste 0 1008.9 -1.6 92
2017-08-07 05:00:00 17.1 12 Nordeste 26 Norte 0 1009.7 -1.4 91
2017-08-07 04:00:00 17.2 14 Norte 24 Norte 0 1010.3 -1.1 87
2017-08-07 03:00:00 17 12 Nordeste 22 Nordeste 0 1010.5 -1.4 87
2017-08-07 02:00:00 17 8 Norte 19 Nordeste 0 1011.1 -1.2 83
2017-08-07 01:00:00 17.5 12 Nordeste 23 Nordeste 0 1011.4 -0.4 80
2017-08-07 00:00:00 17.8 14 Nordeste 26 Nordeste 0 1011.9 0.3 78
2017-08-06 23:00:00 18.3 19 Nordeste 31 Nordeste 0 1012.3 0.7 76
2017-08-06 22:00:00 18.9 21 Nordeste 37 Nordeste 0 1011.8 0 74
2017-08-06 21:00:00 19.7 22 Nordeste 38 Nordeste 0 1011.6 -0.7 70
2017-08-06 20:00:00 20.4 25 Nordeste 45 Este 0 1011.6 -1 67
2017-08-06 19:00:00 21 24 Nordeste 44 Nordeste 0 1011.8 -1.5 65
2017-08-06 18:00:00 21.2 25 Nordeste 40 Norte 0 1012.3 -1.4 65
2017-08-06 17:00:00 22.2 21 Nordeste 41 Nordeste 0 1012.6 -1.6 62
2017-08-06 16:00:00 23.2 22 Nordeste 45 Nordeste 0 1013.3 -1.7 56
2017-08-06 15:00:00 22.9 24 Nordeste 41 Nordeste 0 1013.7 -1.9 55
2017-08-06 14:00:00 22.4 24 Nordeste 41 Nordeste 0 1014.2 -1.6 56
2017-08-06 13:00:00 20.7 28 Nordeste 41 Nordeste 0 1015 -0.9 63
2017-08-06 12:00:00 19.5 23 Nordeste 39 Nordeste 0 1015.6 -0.3 68
2017-08-06 11:00:00 19 22 Nordeste 38 Nordeste 0 1015.8 0 69
2017-08-06 10:00:00 18.5 19 Nordeste 32 Nordeste 0 1015.9 0.4 73
2017-08-06 09:00:00 17.7 17 Nordeste 32 Norte 0 1015.9 0.4 76
2017-08-06 08:00:00 17.5 19 Nordeste 32 Norte 0 1015.8 0.2 77
2017-08-06 07:00:00 17.3 22 Nordeste 35 Nordeste 0 1015.5 -0.5 78
2017-08-06 06:00:00 17.1 19 Nordeste 34 Nordeste 0 1015.5 -0.8 82
2017-08-06 05:00:00 17.1 22 Nordeste 36 Nordeste 0 1015.6 -1.2 83
2017-08-06 04:00:00 17.1 22 Nordeste 36 Norte 0 1016 -0.9 85
2017-08-06 03:00:00 17 20 Nordeste 32 Norte 0 1016.3 -0.8 85
2017-08-06 02:00:00 17 18 Nordeste 31 Nordeste 0 1016.8 -0.4 82
2017-08-06 01:00:00 17.2 19 Nordeste 34 Nordeste 0 1016.9 0.3 82
2017-08-06 00:00:00 17.5 21 Nordeste 32 Nordeste 0 1017.1 0.7 81
2017-08-05 23:00:00 17.6 17 Nordeste 34 Nordeste 0 1017.2 1 82
2017-08-05 22:00:00 17.7 20 Nordeste 37 Nordeste 0 1016.6 0.5 80
2017-08-05 21:00:00 18.2 24 Nordeste 43 Nordeste 0 1016.4 0.5 78
2017-08-05 20:00:00 18.4 19 Norte 41 Norte 0 1016.2 0.1 76
2017-08-05 19:00:00 18.6 23 Norte 49 Norte 0 1016.1 -0.1 74
2017-08-05 18:00:00 19 26 Norte 46 Norte 0 1015.9 -0.2 73
2017-08-05 17:00:00 19.3 25 Norte 46 Norte 0 1016.1 0 73
2017-08-05 16:00:00 19.3 19 Norte 44 Norte 0 1016.2 0.1 73
2017-08-05 15:00:00 19.5 22 Nordeste 46 Nordeste 0 1016.1 0.1 73
2017-08-05 14:00:00 19 27 Nordeste 44 Nordeste 0 1016.1 0.5 75
2017-08-05 13:00:00 19.2 25 Nordeste 43 Nordeste 0 1016.1 0.8 78
2017-08-05 12:00:00 19.2 23 Nordeste 37 Nordeste 0 1016 1 81
2017-08-05 11:00:00 19.3 17 Nordeste 32 Nordeste 0 1015.6 1.2 80
2017-08-05 10:00:00 19.3 9 Este 19 Nordeste 0 1015.3 1.1 82
2017-08-05 09:00:00 17.6 12 Nordeste 19 Nordeste 0 1015 1 87
2017-08-05 08:00:00 16.9 8 Nordeste 13 Este 0 1014.4 0.5 92
2017-08-05 07:00:00 16.9 4 Nordeste 8 Nordeste 0 1014.2 0.3 93
2017-08-05 06:00:00 16.8 6 Nordeste 11 Nordeste 0 1014 0.1 92
2017-08-05 05:00:00 16.7 8 Norte 21 Norte 0 1013.9 0.1 94
2017-08-05 04:00:00 16.5 8 Nordeste 17 Nordeste 0.2 1013.9 0.3 98
2017-08-05 03:00:00 16.6 11 Nordeste 22 Norte 0 1013.9 0.5 99
2017-08-05 02:00:00 16.7 14 Norte 21 Norte 0.2 1013.8 0.8 100
2017-08-05 01:00:00 16.6 17 Norte 27 Norte 0.2 1013.6 1.2 100
2017-08-05 00:00:00 16.9 19 Norte 29 Norte 0.2 1013.4 1.4 100
2017-08-04 23:00:00 17.3 15 Norte 26 Norte 0.2 1013 1.4 100
2017-08-04 22:00:00 17.2 20 Norte 28 Norte 0.2 1012.4 1.1 99
2017-08-04 21:00:00 17.7 18 Norte 30 Norte 0.2 1012 1 99
2017-08-04 20:00:00 18 17 Norte 30 Norte 0.2 1011.6 0.8 99
2017-08-04 19:00:00 19.1 9 Noroeste 22 Norte 0.4 1011.3 0.3 98
2017-08-04 18:00:00 20.5 15 Noroeste 31 Oeste 1 1011 0 95
2017-08-04 17:00:00 22.2 12 Oeste 21 Oeste 1 1010.8 -0.1 96
2017-08-04 16:00:00 22.6 10 Oeste 19 Oeste 0.6 1011 0.4 95
2017-08-04 15:00:00 23.3 10 Oeste 23 Oeste 0 1011 0.4 89
2017-08-04 14:00:00 23.8 11 Oeste 36 Sudoeste 0 1010.9 0.4 80
2017-08-04 13:00:00 25.4 13 Sudoeste 32 Sudoeste 0 1010.6 0.2 73
2017-08-04 12:00:00 25.4 15 Sudoeste 36 Sudoeste 0 1010.6 0.5 72
2017-08-04 11:00:00 24.5 11 Sudoeste 30 Sudoeste 0 1010.5 0.7 76
2017-08-04 10:00:00 23 5 Sur 19 Sudoeste 0 1010.4 0.6 82
2017-08-04 09:00:00 21.8 2 Nordeste 11 Sudoeste 0 1010.1 0.3 83
2017-08-04 08:00:00 22.1 4 Sur 14 Sudeste 0 1009.8 -0.2 82
2017-08-04 07:00:00 21.6 2 Nordeste 15 Sur 0 1009.8 -0.4 83
2017-08-04 06:00:00 21.8 4 Sudeste 12 Sudoeste 0 1009.8 -0.4 83
2017-08-04 05:00:00 21.6 4 Sudeste 11 Sudeste 0 1010 -0.3 82
2017-08-04 04:00:00 21.4 5 Sudeste 15 Sur 0 1010.2 -0.7 81
2017-08-04 03:00:00 21.5 9 Sudeste 21 Sur 0 1010.2 -0.5 79
2017-08-04 02:00:00 21.8 12 Sur 32 Sur 0 1010.3 -0.5 76
2017-08-04 01:00:00 22.1 12 Sur 33 Sur 0 1010.9 0.3 71
2017-08-04 00:00:00 22.7 15 Sur 27 Sur 0 1010.7 0.3 70
2017-08-03 23:00:00 23.8 12 Sudoeste 23 Sudoeste 0 1010.8 0.3 66
2017-08-03 22:00:00 24.4 10 Sur 28 Sudoeste 0 1010.6 -0.6 61
2017-08-03 21:00:00 23.3 5 Nordeste 9 Este 0 1010.4 -1 66
2017-08-03 20:00:00 23.2 5 Sudeste 9 Sudeste 0 1010.5 -1.3 66
2017-08-03 19:00:00 22.4 6 Nordeste 17 Noroeste 0 1011.2 -0.7 69
2017-08-03 18:00:00 24.1 8 Norte 21 Oeste 0 1011.4 -0.7 62
2017-08-03 17:00:00 22.9 12 Oeste 29 Noroeste 0 1011.8 -0.4 67
2017-08-03 16:00:00 23.1 15 Oeste 27 Noroeste 0 1011.9 -0.7 67
2017-08-03 15:00:00 23.9 17 Oeste 25 Oeste 0 1012.1 -0.7 69
2017-08-03 14:00:00 23.5 10 Noroeste 22 Oeste 0 1012.2 -0.8 67
2017-08-03 13:00:00 23.6 9 Norte 19 Noroeste 0 1012.6 -0.1 58
2017-08-03 12:00:00 23.3 8 Oeste 17 Oeste 0 1012.8 0.7 60
2017-08-03 11:00:00 22.9 8 Oeste 18 Oeste 0 1013 1.2 58
2017-08-03 10:00:00 21.5 7 Sudoeste 15 Sudoeste 0 1012.7 1.2 65
2017-08-03 09:00:00 19.1 6 Sudoeste 20 Oeste 0 1012.1 1.1 84
2017-08-03 08:00:00 18.4 10 Oeste 21 Oeste 0 1011.8 0.8 90
2017-08-03 07:00:00 18.7 10 Oeste 23 Oeste 0 1011.5 0.3 95
2017-08-03 06:00:00 19.3 11 Oeste 28 Oeste 0.4 1011 0.1 96
2017-08-03 05:00:00 20 9 Oeste 21 Oeste 0.2 1011 -0.2 94
2017-08-03 04:00:00 20.9 14 Sudoeste 30 Sudoeste 0 1011.2 -0.3 89
2017-08-03 03:00:00 21.9 6 Sudoeste 24 Sudoeste 0 1010.9 -0.8 79
2017-08-03 02:00:00 21.9 13 Sudoeste 27 Sur 0 1011.2 -0.8 77
2017-08-03 01:00:00 22 7 Sudoeste 26 Sudoeste 0 1011.5 0.2 75
2017-08-03 00:00:00 22.2 11 Sudoeste 31 Sudoeste 0 1011.7 0.9 74
2017-08-02 23:00:00 22.3 19 Sudoeste 35 Sudoeste 0 1012 1.7 73
2017-08-02 22:00:00 22.8 11 Sudoeste 35 Sudoeste 0 1011.3 0.8 70
2017-08-02 21:00:00 23.3 25 Sudoeste 43 Sudoeste 0 1010.8 0.5 68
2017-08-02 20:00:00 24.2 22 Sudoeste 41 Sudoeste 0 1010.3 0.4 65
2017-08-02 19:00:00 25.2 20 Sudoeste 41 Sudoeste 0 1010.5 -0.2 63
2017-08-02 18:00:00 26.2 14 Sudoeste 36 Sudoeste 0 1010.3 -0.6 60
2017-08-02 17:00:00 27.9 22 Sudoeste 41 Sudoeste 0 1009.9 -1.1 54
2017-08-02 16:00:00 26.4 17 Oeste 33 Sudoeste 0 1010.7 -1.1 60
2017-08-02 15:00:00 27 15 Sudoeste 37 Sudoeste 0 1010.9 -0.9 56
2017-08-02 14:00:00 26.5 15 Sudoeste 30 Sudoeste 0 1011 -0.9 55
2017-08-02 13:00:00 24.6 15 Sudoeste 30 Sudoeste 0 1011.8 -0.1 63
2017-08-02 12:00:00 24 9 Sudoeste 21 Sudeste 0 1011.8 0 64
2017-08-02 11:00:00 22.4 9 Sudeste 24 Sur 0 1011.9 0.2 67
2017-08-02 10:00:00 20.2 12 Sur 25 Sur 0 1011.9 0.1 72
2017-08-02 09:00:00 17.7 10 Sur 18 Sur 0 1011.8 0.2 77
2017-08-02 08:00:00 16.6 9 Sur 18 Sur 0 1011.7 -0.1 76
2017-08-02 07:00:00 16.7 8 Sudeste 16 Sur 0 1011.8 0 71
2017-08-02 06:00:00 17.1 8 Sur 18 Sur 0 1011.6 -0.6 66
2017-08-02 05:00:00 17 9 Sur 13 Sur 0 1011.8 -0.9 68
2017-08-02 04:00:00 16.9 8 Sur 13 Sur 0 1011.8 -1.1 74
2017-08-02 03:00:00 17.2 6 Sur 10 Sur 0 1012.2 -0.7 80
2017-08-02 02:00:00 17.5 4 Sudeste 9 Sudoeste 0 1012.7 -0.2 79
2017-08-02 01:00:00 17.9 5 Sudoeste 10 Sudoeste 0 1012.9 0.5 78
2017-08-02 00:00:00 17.9 5 Sudoeste 8 Sudoeste 0 1012.9 1.1 79
2017-08-01 23:00:00 18.1 5 Sudoeste 10 Oeste 0 1012.9 1.4 75
2017-08-01 22:00:00 18.8 8 Oeste 13 Oeste 0 1012.4 1.1 77
2017-08-01 21:00:00 19.6 6 Oeste 15 Noroeste 0 1011.8 0.6 71
2017-08-01 20:00:00 19.9 7 Noroeste 21 Noroeste 0 1011.5 0.5 71
2017-08-01 19:00:00 20.1 15 Noroeste 23 Norte 0 1011.3 0.5 72
2017-08-01 18:00:00 20.6 12 Noroeste 20 Noroeste 0 1011.2 0.5 70
2017-08-01 17:00:00 21.6 15 Norte 24 Norte 0 1011 0.2 69
2017-08-01 16:00:00 21.9 13 Norte 21 Norte 0 1010.8 0.1 70
2017-08-01 15:00:00 21.5 15 Norte 24 Norte 0 1010.7 0 68
2017-08-01 14:00:00 21.5 12 Norte 20 Norte 0 1010.8 0.3 65
2017-08-01 13:00:00 21.5 12 Norte 17 Norte 0 1010.7 0.6 65
2017-08-01 12:00:00 21.2 9 Norte 14 Norte 0 1010.7 1 67
2017-08-01 11:00:00 20.2 6 Nordeste 12 Este 0 1010.5 1.6 70
2017-08-01 10:00:00 19 5 Sudeste 9 Sudeste 0 1010.1 1.3 75
2017-08-01 09:00:00 16.1 3 Sudeste 6 Este 0 1009.7 1.2 88
2017-08-01 08:00:00 15.2 3 Oeste 4 Oeste 0 1008.9 0.5 90
2017-08-01 07:00:00 15.4 3 Sudeste 4 Nordeste 0 1008.8 0.4 90
2017-08-01 06:00:00 15.8 0 Calma 4 Nordeste 0 1008.5 -0.1 89
2017-08-01 05:00:00 16.3 2 Este 6 Este 0 1008.4 -0.3 88
2017-08-01 04:00:00 16.6 4 Nordeste 7 Nordeste 0 1008.4 -0.4 88
2017-08-01 03:00:00 17 5 Norte 9 Norte 0 1008.6 0.1 86
2017-08-01 02:00:00 17.2 6 Norte 12 Norte 0 1008.7 0.5 86
2017-08-01 01:00:00 17.6 6 Norte 15 Norte 0 1008.8 1.1 87
2017-08-01 00:00:00 17.7 8 Norte 18 Norte 0 1008.5 1 87
2017-07-31 23:00:00 17.9 10 Norte 18 Norte 0 1008.2 0.8 87
2017-07-31 22:00:00 18.2 9 Norte 17 Norte 0 1007.7 0.4 82
2017-07-31 21:00:00 18.8 10 Noroeste 21 Noroeste 0 1007.5 0.3 79
2017-07-31 20:00:00 19 10 Norte 26 Norte 0 1007.4 0.3 78
2017-07-31 19:00:00 20 13 Norte 26 Norte 0 1007.3 0 75
2017-07-31 18:00:00 20.2 15 Noroeste 24 Norte 0 1007.2 0 72
2017-07-31 17:00:00 21.5 17 Norte 26 Noroeste 0 1007.1 0 67
2017-07-31 16:00:00 21.5 16 Norte 25 Noroeste 0 1007.3 0.1 67
2017-07-31 15:00:00 20.9 12 Norte 22 Norte 0 1007.2 -0.1 70
2017-07-31 14:00:00 21.5 11 Norte 22 Norte 0 1007.1 -0.2 69
2017-07-31 13:00:00 21.3 10 Norte 21 Norte 0 1007.2 0 69
2017-07-31 12:00:00 21 13 Norte 19 Norte 0 1007.3 0.1 70
2017-07-31 11:00:00 20.2 9 Noroeste 15 Norte 0 1007.3 0.2 74
2017-07-31 10:00:00 19.3 6 Nordeste 11 Nordeste 0 1007.2 0.5 78
2017-07-31 09:00:00 17.4 4 Oeste 8 Oeste 0 1007.2 0.6 89
2017-07-31 08:00:00 16.8 3 Oeste 8 Oeste 0 1007.1 0.2 90
2017-07-31 07:00:00 17 3 Noroeste 5 Oeste 0 1006.7 -0.5 88
2017-07-31 06:00:00 17.3 3 Oeste 5 Nordeste 0 1006.6 -1.2 85
2017-07-31 05:00:00 17.3 4 Este 8 Este 0 1006.9 -1.4 83
2017-07-31 04:00:00 17.5 2 Noroeste 9 Sudeste 0 1007.2 -1.1 83
2017-07-31 03:00:00 17.6 0 Calma 7 Sudoeste 0 1007.8 -1.1 83
2017-07-31 02:00:00 17.8 4 Sudoeste 12 Oeste 0 1008.3 -0.9 81
2017-07-31 01:00:00 18 6 Sudoeste 16 Oeste 0 1008.3 -0.3 79
2017-07-31 00:00:00 18.2 10 Sudoeste 15 Oeste 0 1008.9 0.5 80
2017-07-30 23:00:00 18.4 7 Oeste 15 Sudoeste 0 1009.2 0.9 79
2017-07-30 22:00:00 18.7 11 Oeste 19 Noroeste 0 1008.6 0.2 76
2017-07-30 21:00:00 19 8 Oeste 21 Oeste 0 1008.4 0 72
2017-07-30 20:00:00 19.9 11 Oeste 31 Oeste 0 1008.3 -0.6 71
2017-07-30 19:00:00 20.2 24 Oeste 36 Oeste 0 1008.4 -0.6 72
2017-07-30 18:00:00 20.1 21 Oeste 34 Oeste 0 1008.4 -0.5 71
2017-07-30 17:00:00 20.8 24 Oeste 41 Oeste 0 1008.9 0.4 69
2017-07-30 16:00:00 21.2 15 Oeste 35 Oeste 0 1009 0.2 67
2017-07-30 15:00:00 20.7 19 Oeste 38 Oeste 0 1008.9 0.5 69
2017-07-30 14:00:00 21.6 23 Oeste 39 Oeste 0 1008.5 0.3 66
2017-07-30 13:00:00 21 20 Oeste 38 Oeste 0 1008.8 0.5 73
2017-07-30 12:00:00 21.4 15 Oeste 29 Sudoeste 0 1008.4 0.3 68
2017-07-30 11:00:00 22.2 14 Sudoeste 31 Sudoeste 0 1008.2 -0.1 61
2017-07-30 10:00:00 20.4 19 Sudoeste 32 Sudoeste 0 1008.3 0.3 71
2017-07-30 09:00:00 18.2 17 Sudoeste 26 Sudoeste 0 1008.1 0.1 80
2017-07-30 08:00:00 17.6 14 Sudoeste 28 Sudoeste 0 1008.3 -0.2 83
2017-07-30 07:00:00 17.4 15 Sudoeste 28 Sudoeste 0 1008 -0.9 85
2017-07-30 06:00:00 17.7 14 Sudoeste 26 Sudoeste 0 1008 -1.3 86
2017-07-30 05:00:00 18.3 12 Sudoeste 24 Sudoeste 0 1008.5 -1 85
2017-07-30 04:00:00 18.3 13 Sudoeste 25 Oeste 0 1008.9 -0.5 87
2017-07-30 03:00:00 18.1 12 Sudoeste 23 Sudoeste 0.2 1009.3 0.2 91
2017-07-30 02:00:00 17.9 14 Sudoeste 30 Oeste 0 1009.5 0.5 93
2017-07-30 01:00:00 18.6 14 Oeste 35 Oeste 0 1009.4 1 92
2017-07-30 00:00:00 21 10 Sudoeste 27 Sudoeste 0 1009.1 0.9 82
2017-07-29 23:00:00 21.3 15 Sudoeste 36 Sudoeste 0 1009 0.9 80
2017-07-29 22:00:00 22 24 Sudoeste 44 Sudoeste 0 1008.4 0.6 74
2017-07-29 21:00:00 22.2 15 Sudoeste 45 Sudoeste 0 1008.2 0.7 72
2017-07-29 20:00:00 23.2 24 Sudoeste 54 Sudoeste 0 1008.1 0.7 74
2017-07-29 19:00:00 25 22 Sudoeste 50 Sudoeste 0 1007.8 0.3 61
2017-07-29 18:00:00 25.9 33 Sudoeste 66 Sudoeste 0 1007.5 -0.1 59
2017-07-29 17:00:00 26.8 35 Sudoeste 59 Sudoeste 0 1007.4 -0.5 59
2017-07-29 16:00:00 27.7 29 Sudoeste 53 Sudoeste 0 1007.5 -0.7 57
2017-07-29 15:00:00 26.9 28 Sudoeste 56 Sudoeste 0 1007.6 -0.9 60
2017-07-29 14:00:00 27.1 19 Sudoeste 41 Sudoeste 0 1007.9 -1 59
2017-07-29 13:00:00 25.7 11 Sudoeste 34 Sudoeste 0 1008.2 -0.7 68
2017-07-29 12:00:00 25 12 Sudoeste 32 Sur 0 1008.5 -0.2 72
2017-07-29 11:00:00 22.5 11 Sur 32 Sur 0 1008.9 0.2 82
2017-07-29 10:00:00 21.7 12 Sur 25 Sur 0 1008.9 0.1 83
2017-07-29 09:00:00 21.3 7 Sudeste 27 Sudoeste 0 1008.7 -0.1 81
2017-07-29 08:00:00 20.3 12 Sudoeste 27 Sudoeste 0 1008.7 0 84
2017-07-29 07:00:00 20 9 Sudoeste 28 Sudoeste 0 1008.8 -0.2 82
2017-07-29 06:00:00 20.7 13 Oeste 26 Sudoeste 0 1008.8 -0.5 83
2017-07-29 05:00:00 21.4 9 Sudoeste 24 Sudoeste 0 1008.7 -0.8 84
2017-07-29 04:00:00 21.5 8 Sudoeste 22 Sudoeste 0 1009 -0.9 85
2017-07-29 03:00:00 21.5 8 Sur 24 Sudoeste 0 1009.3 -1 84
2017-07-29 02:00:00 21.5 7 Sur 17 Sudoeste 0 1009.5 -1.3 85
2017-07-29 01:00:00 21.6 8 Sur 21 Sur 0 1009.9 -0.4 85
2017-07-29 00:00:00 21.9 5 Sur 22 Sur 0 1010.3 0 86
2017-07-28 23:00:00 23.2 4 Sudoeste 19 Sudoeste 0 1010.8 0.6 81
2017-07-28 22:00:00 23.5 10 Sudoeste 25 Sudoeste 0 1010.3 -0.1 78
2017-07-28 21:00:00 24.2 8 Sudoeste 21 Oeste 0 1010.3 -0.2 76
2017-07-28 20:00:00 24.6 12 Sudoeste 24 Sudoeste 0 1010.2 -0.4 74
2017-07-28 19:00:00 24.5 13 Oeste 23 Oeste 0 1010.4 -0.5 70
2017-07-28 18:00:00 22.9 9 Oeste 22 Oeste 0 1010.5 -0.6 74
2017-07-28 17:00:00 24 5 Norte 20 Oeste 0 1010.6 -0.5 69
2017-07-28 16:00:00 23.2 11 Noroeste 21 Oeste 0 1010.9 -0.3 69
2017-07-28 15:00:00 23.1 12 Oeste 20 Oeste 0 1011.1 0.1 69
2017-07-28 14:00:00 23.8 9 Norte 15 Nordeste 0 1011.1 -0.1 64
2017-07-28 13:00:00 23 9 Norte 17 Norte 0 1011.2 -0.1 66
2017-07-28 12:00:00 22.4 8 Norte 15 Norte 0 1011 -0.2 67
2017-07-28 11:00:00 21.9 7 Sudoeste 20 Sudoeste 0 1011.2 0.3 65
2017-07-28 10:00:00 20.3 13 Sudoeste 21 Sudoeste 0 1011.3 0.5 72
2017-07-28 09:00:00 17.9 4 Sudoeste 9 Sur 0 1011.2 0.6 81
2017-07-28 08:00:00 17.1 6 Sur 12 Sur 0 1010.9 0.2 84
2017-07-28 07:00:00 16.9 7 Sur 11 Sur 0 1010.8 0.1 86
2017-07-28 06:00:00 17 8 Sudoeste 13 Sudoeste 0 1010.6 -0.1 86
2017-07-28 05:00:00 17.5 8 Sudoeste 11 Oeste 0 1010.7 -0.1 86
2017-07-28 04:00:00 17.7 4 Sudoeste 10 Oeste 0 1010.7 -0.2 88
2017-07-28 03:00:00 17.5 6 Sudoeste 11 Oeste 0 1010.7 -0.3 89
2017-07-28 02:00:00 18 3 Oeste 9 Sudoeste 0 1010.8 -0.3 89
2017-07-28 01:00:00 18.1 5 Oeste 15 Oeste 0 1010.9 0.1 91
2017-07-28 00:00:00 18.3 8 Oeste 16 Sudoeste 0 1011 0.6 93
2017-07-27 23:00:00 18.6 6 Oeste 10 Oeste 0 1011.1 1.2 93
2017-07-27 22:00:00 18.8 5 Oeste 12 Noroeste 0 1010.8 1 92
2017-07-27 21:00:00 19.2 10 Oeste 13 Noroeste 0 1010.4 0.5 91
2017-07-27 20:00:00 19.6 10 Oeste 15 Oeste 0 1009.9 -0.3 89
2017-07-27 19:00:00 19.7 8 Oeste 15 Sudoeste 0 1009.8 -0.2 90
2017-07-27 18:00:00 19.2 8 Oeste 14 Oeste 0 1009.9 0.1 98
2017-07-27 17:00:00 18.3 8 Noroeste 15 Norte 0.2 1010.2 0.4 98
2017-07-27 16:00:00 18.8 7 Norte 15 Noroeste 0.6 1010 0.3 98
2017-07-27 15:00:00 19.3 8 Noroeste 21 Oeste 2 1009.8 0.3 98
2017-07-27 14:00:00 20 14 Noroeste 21 Oeste 1.4 1009.8 0.5 96
2017-07-27 13:00:00 21.2 5 Noroeste 15 Oeste 0.8 1009.7 0.4 95
2017-07-27 12:00:00 21.2 10 Oeste 18 Oeste 0.2 1009.5 0.4 93
2017-07-27 11:00:00 21.9 9 Oeste 24 Oeste 0 1009.3 0.4 84
2017-07-27 10:00:00 21 10 Sudoeste 21 Sudoeste 0 1009.3 0.6 88
2017-07-27 09:00:00 20.2 6 Sudoeste 18 Sudoeste 0 1009.1 0.2 90
2017-07-27 08:00:00 19.8 7 Sur 12 Sudeste 0 1008.9 -0.1 86
2017-07-27 07:00:00 19.7 5 Sur 21 Sudoeste 0 1008.7 -0.6 89
2017-07-27 06:00:00 19.2 7 Sudoeste 17 Sudoeste 0 1008.9 -0.8 87
2017-07-27 05:00:00 19.1 11 Sudoeste 19 Sudoeste 0 1009 -0.8 87
2017-07-27 04:00:00 19 6 Sur 12 Sur 0 1009.3 -1 85
2017-07-27 03:00:00 18.6 4 Sur 11 Sur 0 1009.7 -1 86
2017-07-27 02:00:00 18.3 7 Sur 13 Sur 0 1009.8 -0.8 87
2017-07-27 01:00:00 18.6 9 Sudoeste 16 Sudoeste 0 1010.3 0.2 87
2017-07-27 00:00:00 18.5 9 Oeste 22 Oeste 0 1010.7 0.6 87
2017-07-26 23:00:00 19 6 Oeste 14 Oeste 0 1010.6 0.5 84
2017-07-26 22:00:00 19.6 8 Oeste 17 Noroeste 0 1010.1 -0.4 80
2017-07-26 21:00:00 20.3 10 Oeste 22 Oeste 0 1010.1 -0.5 77
2017-07-26 20:00:00 20.9 10 Oeste 23 Oeste 0 1010.1 -0.9 72
2017-07-26 19:00:00 21.6 16 Oeste 24 Oeste 0 1010.5 -0.8 68
2017-07-26 18:00:00 22.5 12 Oeste 26 Oeste 0 1010.6 -0.8 65
2017-07-26 17:00:00 22.2 15 Oeste 26 Noroeste 0 1011 -0.5 64
2017-07-26 16:00:00 22.5 17 Oeste 27 Oeste 0 1011.3 -0.5 63
2017-07-26 15:00:00 22.5 18 Oeste 29 Oeste 0 1011.4 -0.4 62
2017-07-26 14:00:00 21.9 13 Oeste 23 Oeste 0 1011.5 -0.5 63
2017-07-26 13:00:00 21.3 9 Noroeste 18 Oeste 0 1011.8 -0.1 65
2017-07-26 12:00:00 20.4 8 Noroeste 17 Oeste 0 1011.8 0.4 69
2017-07-26 11:00:00 19.7 6 Oeste 19 Oeste 0 1012 0.7 72
2017-07-26 10:00:00 18.1 6 Norte 10 Norte 0 1011.9 0.9 80
2017-07-26 09:00:00 17.5 5 Norte 10 Noroeste 0 1011.4 0.2 84
2017-07-26 08:00:00 17.2 3 Norte 10 Norte 0 1011.3 0 87
2017-07-26 07:00:00 17.3 4 Nordeste 8 Este 0 1011 -0.7 87
2017-07-26 06:00:00 17.5 5 Nordeste 8 Nordeste 0 1011.2 -1.3 87
2017-07-26 05:00:00 17.6 4 Este 9 Este 0 1011.3 -1.5 89
2017-07-26 04:00:00 17.6 2 Nordeste 6 Norte 0 1011.7 -1.4 88
2017-07-26 03:00:00 17.6 4 Norte 7 Noroeste 0 1012.5 -1.1 89
2017-07-26 02:00:00 17.6 5 Nordeste 10 Nordeste 0 1012.8 -0.9 89
2017-07-26 01:00:00 17.5 6 Nordeste 14 Norte 0 1013.1 -0.5 91
2017-07-26 00:00:00 17.3 7 Norte 17 Norte 0 1013.6 0 92
2017-07-25 23:00:00 17.4 10 Norte 19 Noroeste 0 1013.7 -0.1 94
2017-07-25 22:00:00 17.6 10 Noroeste 18 Norte 0 1013.6 -0.4 91
2017-07-25 21:00:00 18.2 8 Noroeste 19 Oeste 0 1013.6 -0.5 86
2017-07-25 20:00:00 18.7 8 Noroeste 25 Norte 0 1013.8 -0.6 81
2017-07-25 19:00:00 19.4 13 Noroeste 25 Noroeste 0 1014 -0.7 77
2017-07-25 18:00:00 20.1 12 Noroeste 30 Norte 0 1014.1 -1.2 74
2017-07-25 17:00:00 20.8 13 Noroeste 29 Noroeste 0 1014.4 -1.5 70
2017-07-25 16:00:00 20.6 15 Norte 28 Noroeste 0 1014.7 -1.2 68
2017-07-25 15:00:00 20.8 17 Norte 27 Noroeste 0 1015.3 -0.9 65
2017-07-25 14:00:00 20.7 15 Norte 25 Norte 0 1015.9 -0.4 67
2017-07-25 13:00:00 20.4 17 Norte 23 Norte 0 1015.9 -0.5 69
2017-07-25 12:00:00 18.9 12 Norte 23 Norte 0 1016.2 -0.5 74
2017-07-25 11:00:00 19.3 9 Norte 21 Norte 0 1016.3 -0.3 73
2017-07-25 10:00:00 18.2 11 Nordeste 19 Nordeste 0 1016.4 0.1 77
2017-07-25 09:00:00 17.1 10 Norte 24 Norte 0 1016.7 0.2 83
2017-07-25 08:00:00 16.8 12 Nordeste 19 Nordeste 0 1016.6 -0.3 85
2017-07-25 07:00:00 16.9 9 Nordeste 17 Nordeste 0 1016.3 -1 84
2017-07-25 06:00:00 16.9 12 Nordeste 19 Norte 0 1016.5 -1.1 87
2017-07-25 05:00:00 17.2 7 Norte 21 Nordeste 0 1016.9 -0.9 85
2017-07-25 04:00:00 17.3 10 Nordeste 18 Norte 0 1017.3 -1.1 87
2017-07-25 03:00:00 17.1 9 Nordeste 18 Nordeste 0 1017.6 -0.9 91
2017-07-25 02:00:00 17.1 7 Norte 14 Nordeste 0 1017.8 -0.8 93
2017-07-25 01:00:00 17.2 7 Norte 18 Norte 0 1018.4 0 92
2017-07-25 00:00:00 17.4 12 Norte 22 Norte 0 1018.5 0 90
2017-07-24 23:00:00 17.5 17 Norte 23 Norte 0 1018.6 0 89
2017-07-24 22:00:00 17.8 10 Norte 15 Norte 0 1018.4 -0.3 86
2017-07-24 21:00:00 18.1 9 Norte 17 Nordeste 0 1018.5 -0.1 85
2017-07-24 20:00:00 17.9 11 Norte 21 Norte 0 1018.6 -0.4 89
2017-07-24 19:00:00 19.1 14 Norte 22 Norte 0 1018.7 -0.4 83
2017-07-24 18:00:00 20.5 14 Norte 21 Norte 0 1018.6 -0.5 73
2017-07-24 17:00:00 19.8 9 Norte 21 Norte 0 1019 0 80
2017-07-24 16:00:00 20.5 9 Noroeste 21 Norte 0 1019.1 0.2 77
2017-07-24 15:00:00 19.7 9 Norte 24 Norte 0 1019.1 0.3 82
2017-07-24 14:00:00 19.1 7 Noroeste 19 Noroeste 0 1019 0.3 87
2017-07-24 13:00:00 19.2 12 Norte 19 Norte 0 1018.9 0.5 86
2017-07-24 12:00:00 18.1 9 Noroeste 15 Norte 0 1018.8 0.8 95
2017-07-24 11:00:00 17.3 7 Norte 12 Norte 0 1018.7 1.3 96
2017-07-24 10:00:00 16.7 2 Este 18 Noroeste 0.2 1018.4 1.3 99
2017-07-24 09:00:00 17.2 10 Noroeste 19 Noroeste 0 1018 1.2 96
2017-07-24 08:00:00 16.8 4 Noroeste 12 Noroeste 0 1017.4 0.6 98
2017-07-24 07:00:00 16.8 4 Noroeste 17 Noroeste 0.4 1017.1 0.4 99
2017-07-24 06:00:00 16.8 5 Norte 16 Norte 0.4 1016.8 0 99
2017-07-24 05:00:00 17 13 Noroeste 23 Noroeste 0 1016.8 -0.2 98
2017-07-24 04:00:00 18 9 Oeste 17 Oeste 0 1016.7 -0.2 98
2017-07-24 03:00:00 17.7 9 Oeste 17 Noroeste 0.2 1016.8 0 97
2017-07-24 02:00:00 17.9 9 Oeste 17 Oeste 0 1017 0.5 96
2017-07-24 01:00:00 17.8 10 Oeste 24 Oeste 0 1016.9 1 97
2017-07-24 00:00:00 18.4 13 Oeste 24 Oeste 0 1016.8 1.1 97
2017-07-23 23:00:00 18.5 14 Oeste 27 Oeste 0 1016.5 0.9 98
2017-07-23 22:00:00 18.6 11 Oeste 33 Oeste 0.2 1015.9 0.4 97
2017-07-23 21:00:00 19 15 Oeste 29 Oeste 0.4 1015.7 0.3 96
2017-07-23 20:00:00 19.7 15 Oeste 33 Oeste 0 1015.6 -0.1 90
2017-07-23 19:00:00 20.8 18 Oeste 35 Oeste 0 1015.5 -0.3 85
2017-07-23 18:00:00 21.6 18 Oeste 31 Oeste 0 1015.4 -0.5 81
2017-07-23 17:00:00 22.3 21 Oeste 35 Oeste 0 1015.7 -0.3 76
2017-07-23 16:00:00 23.4 20 Oeste 32 Oeste 0 1015.8 -0.2 71
2017-07-23 15:00:00 21.4 15 Oeste 28 Oeste 0 1015.9 0.1 81
2017-07-23 14:00:00 21.1 9 Oeste 19 Sudoeste 0 1016 0.1 84
2017-07-23 13:00:00 20.7 9 Oeste 20 Noroeste 0 1016 0.3 79
2017-07-23 12:00:00 20.3 8 Oeste 17 Oeste 0 1015.8 0.2 78
2017-07-23 11:00:00 19.5 9 Oeste 15 Oeste 0 1015.9 0.9 78
2017-07-23 10:00:00 18.7 6 Sudoeste 12 Sudoeste 0 1015.7 0.9 79
2017-07-23 09:00:00 17.2 0 Calma 8 Sudeste 0 1015.6 1.1 80
2017-07-23 08:00:00 16.4 3 Sudeste 5 Este 0 1015 0.7 82
2017-07-23 07:00:00 16.2 3 Este 4 Sudeste 0 1014.8 0.3 83
2017-07-23 06:00:00 16.1 3 Sudeste 8 Sur 0 1014.5 -0.4 82
2017-07-23 05:00:00 16.5 4 Sur 7 Sur 0 1014.3 -0.6 81
2017-07-23 04:00:00 16.9 3 Sudeste 6 Sudeste 0 1014.5 -0.3 80
2017-07-23 03:00:00 16.6 0 Calma 7 Oeste 0 1014.9 0 80
2017-07-23 02:00:00 16.6 4 Oeste 13 Sudoeste 0 1014.9 0.2 84
2017-07-23 01:00:00 16.8 9 Sudoeste 14 Sudoeste 0 1014.8 0.9 85
2017-07-23 00:00:00 17.2 9 Sudoeste 15 Oeste 0 1014.9 1.6 83
2017-07-22 23:00:00 17.7 8 Oeste 14 Oeste 0 1014.7 1.6 79
2017-07-22 22:00:00 18 8 Oeste 18 Oeste 0 1013.9 1.2 77
2017-07-22 21:00:00 18.6 10 Oeste 22 Oeste 0 1013.3 0.9 75
2017-07-22 20:00:00 19.4 16 Oeste 24 Noroeste 0 1013.1 0.9 72
2017-07-22 19:00:00 20.4 14 Oeste 29 Oeste 0 1012.7 0.8 68
2017-07-22 18:00:00 21.9 21 Oeste 30 Oeste 0 1012.4 0.8 63
2017-07-22 17:00:00 21.7 21 Oeste 35 Oeste 0 1012.2 1 65
2017-07-22 16:00:00 21.3 24 Oeste 33 Oeste 0 1011.9 1.1 64
2017-07-22 15:00:00 21.3 22 Oeste 30 Oeste 0 1011.6 1.1 64
2017-07-22 14:00:00 20.9 18 Oeste 30 Noroeste 0 1011.2 1.2 64
2017-07-22 13:00:00 20.5 18 Oeste 27 Noroeste 0 1010.8 1.2 66
2017-07-22 12:00:00 20.4 12 Oeste 27 Oeste 0 1010.5 1.7 70
2017-07-22 11:00:00 19 14 Oeste 28 Oeste 0 1010 1.7 80
2017-07-22 10:00:00 17.7 14 Oeste 27 Sudoeste 0 1009.6 1.6 86
2017-07-22 09:00:00 17.2 11 Oeste 23 Sudoeste 0 1008.8 0.8 91
2017-07-22 08:00:00 16.5 13 Sudoeste 21 Oeste 0 1008.3 0.9 94
2017-07-22 07:00:00 16.4 10 Sudoeste 20 Oeste 1 1008 0.4 96
2017-07-22 06:00:00 17 13 Oeste 27 Oeste 0.4 1008 0.4 93
2017-07-22 05:00:00 17.7 13 Sudoeste 22 Sudoeste 0 1007.4 -0.5 91
2017-07-22 04:00:00 17.8 16 Sudoeste 30 Sudoeste 0 1007.6 -0.2 90
2017-07-22 03:00:00 17.8 14 Sudoeste 27 Sudoeste 0 1007.6 -0.3 91
2017-07-22 02:00:00 17.7 12 Sudoeste 30 Sudoeste 0 1007.9 -0.1 92
2017-07-22 01:00:00 18.6 15 Sudoeste 30 Sudoeste 0 1007.8 0.2 85
2017-07-22 00:00:00 19.2 13 Sudoeste 28 Sudoeste 0 1007.9 0.5 79